Disclaimer

Please do not use the information listed here in-flight or in-navigation, as they are not provided to us by the airports but are provided by volunteers, so they might be outdated.

Search


Regions


Airport information page

Radio informations:
Tower (TWR) - 118.1 MHz
VHF/DF - 118.1 MHz
Automatic Terminal Information Service (ATIS) - 126.6 MHz
INFO - 129.1 MHz
CON - 121.1 MHz
RDO - 5680 MHz

Airport informations:
Latitude: 05° 15' 40.99" N
Longitude: 003° 55' 34.66" W
Elevation: 21 feet - 6 meters
Operating hours: 24 hour operations
Operating agency: Civil government, landing fees and diplomatic clearance may be required
Timezone: UTC 0
Fuel: N/A

Runway information:
03/21 - 9843 x 164 feet< - >3000 x 50 meters

Recent METARs:
DIAP 130230Z 07002KT 8000 FEW012 26/25 Q1012 NOSIG
DIAP 130230Z 07002KT 8000 FEW012 26/25 Q1012 NOSIG
DIAP 130330Z 05002KT 8000 FEW012 25/24 Q1012 NOSIG

Airport on the map: